sensor_id;sensor_type;location;lat;lon;timestamp;pressure;altitude;pressure_sealevel;temperature;humidity
39593;BME280;25286;48.870;9.084;2022-12-07T00:01:48;98086.75;;;2.77;nan
39593;BME280;25286;48.870;9.084;2022-12-07T00:04:14;98086.50;;;2.72;nan
39593;BME280;25286;48.870;9.084;2022-12-07T00:06:42;98084.88;;;2.77;nan
39593;BME280;25286;48.870;9.084;2022-12-07T00:09:15;98084.00;;;2.70;nan
39593;BME280;25286;48.870;9.084;2022-12-07T00:11:42;98071.72;;;2.74;nan
39593;BME280;25286;48.870;9.084;2022-12-07T00:14:12;98071.44;;;2.69;nan
39593;BME280;25286;48.870;9.084;2022-12-07T00:16:39;98074.56;;;2.66;nan
39593;BME280;25286;48.870;9.084;2022-12-07T00:19:05;98064.38;;;2.68;nan
39593;BME280;25286;48.870;9.084;2022-12-07T00:21:32;98077.66;;;2.63;nan
39593;BME280;25286;48.870;9.084;2022-12-07T00:23:59;98069.78;;;2.68;nan
39593;BME280;25286;48.870;9.084;2022-12-07T00:28:53;98073.16;;;2.70;nan
39593;BME280;25286;48.870;9.084;2022-12-07T00:31:21;98072.59;;;2.60;nan
39593;BME280;25286;48.870;9.084;2022-12-07T00:33:47;98064.38;;;2.68;nan
39593;BME280;25286;48.870;9.084;2022-12-07T00:36:15;98065.84;;;2.71;nan
39593;BME280;25286;48.870;9.084;2022-12-07T00:38:42;98066.94;;;2.76;nan
39593;BME280;25286;48.870;9.084;2022-12-07T00:41:12;98068.16;;;2.74;nan
39593;BME280;25286;48.870;9.084;2022-12-07T00:43:39;98058.31;;;2.66;nan
39593;BME280;25286;48.870;9.084;2022-12-07T00:46:05;98059.03;;;2.75;nan
39593;BME280;25286;48.870;9.084;2022-12-07T00:48:31;98058.56;;;2.71;nan
39593;BME280;25286;48.870;9.084;2022-12-07T00:50:58;98064.31;;;2.62;nan
39593;BME280;25286;48.870;9.084;2022-12-07T00:53:24;98070.56;;;2.62;nan
39593;BME280;25286;48.870;9.084;2022-12-07T00:55:50;98070.09;;;2.59;nan
39593;BME280;25286;48.870;9.084;2022-12-07T00:58:18;98069.38;;;2.50;nan
39593;BME280;25286;48.870;9.084;2022-12-07T01:00:45;98073.66;;;2.59;nan
39593;BME280;25286;48.870;9.084;2022-12-07T01:03:12;98071.44;;;2.69;nan
39593;BME280;25286;48.870;9.084;2022-12-07T01:05:38;98072.50;;;2.68;nan
39593;BME280;25286;48.870;9.084;2022-12-07T01:08:05;98069.53;;;2.63;nan
39593;BME280;25286;48.870;9.084;2022-12-07T01:10:32;98073.31;;;2.69;nan
39593;BME280;25286;48.870;9.084;2022-12-07T01:12:58;98069.09;;;2.81;nan
39593;BME280;25286;48.870;9.084;2022-12-07T01:15:25;98077.84;;;2.62;nan
39593;BME280;25286;48.870;9.084;2022-12-07T01:17:52;98069.78;;;2.68;nan
39593;BME280;25286;48.870;9.084;2022-12-07T01:20:18;98075.00;;;2.70;nan
39593;BME280;25286;48.870;9.084;2022-12-07T01:22:44;98069.88;;;2.75;nan
39593;BME280;25286;48.870;9.084;2022-12-07T01:25:10;98069.66;;;2.76;nan
39593;BME280;25286;48.870;9.084;2022-12-07T01:27:37;98068.25;;;2.80;nan
39593;BME280;25286;48.870;9.084;2022-12-07T01:30:04;98069.34;;;2.86;nan
39593;BME280;25286;48.870;9.084;2022-12-07T01:32:32;98084.56;;;2.87;nan
39593;BME280;25286;48.870;9.084;2022-12-07T01:34:59;98085.09;;;2.76;nan
39593;BME280;25286;48.870;9.084;2022-12-07T01:37:25;98088.63;;;2.76;nan
39593;BME280;25286;48.870;9.084;2022-12-07T01:39:51;98082.44;;;2.83;nan
39593;BME280;25286;48.870;9.084;2022-12-07T01:42:18;98081.97;;;2.79;nan
39593;BME280;25286;48.870;9.084;2022-12-07T01:45:14;98082.53;;;2.74;nan
39593;BME280;25286;48.870;9.084;2022-12-07T01:47:33;98083.00;;;2.78;nan
39593;BME280;25286;48.870;9.084;2022-12-07T01:50:00;98082.16;;;2.77;nan
39593;BME280;25286;48.870;9.084;2022-12-07T01:52:27;98086.88;;;2.69;nan
39593;BME280;25286;48.870;9.084;2022-12-07T01:54:57;98084.25;;;2.75;nan
39593;BME280;25286;48.870;9.084;2022-12-07T01:57:25;98089.78;;;2.67;nan
39593;BME280;25286;48.870;9.084;2022-12-07T01:59:51;98089.59;;;2.69;nan
39593;BME280;25286;48.870;9.084;2022-12-07T02:02:38;98083.22;;;2.76;nan
39593;BME280;25286;48.870;9.084;2022-12-07T02:05:07;98080.19;;;2.86;nan
39593;BME280;25286;48.870;9.084;2022-12-07T02:07:34;98074.38;;;2.89;nan
39593;BME280;25286;48.870;9.084;2022-12-07T02:12:39;98072.28;;;2.91;nan
39593;BME280;25286;48.870;9.084;2022-12-07T02:15:06;98076.75;;;2.99;nan
39593;BME280;25286;48.870;9.084;2022-12-07T02:17:38;98076.75;;;2.77;nan
39593;BME280;25286;48.870;9.084;2022-12-07T02:20:11;98067.47;;;2.87;nan
39593;BME280;25286;48.870;9.084;2022-12-07T02:22:56;98073.84;;;3.00;nan
39593;BME280;25286;48.870;9.084;2022-12-07T02:28:19;98075.97;;;3.05;nan
39593;BME280;25286;48.870;9.084;2022-12-07T02:30:51;98065.44;;;2.74;nan
39593;BME280;25286;48.870;9.084;2022-12-07T02:33:19;98071.13;;;2.79;nan
39593;BME280;25286;48.870;9.084;2022-12-07T02:35:55;98059.59;;;2.92;nan
39593;BME280;25286;48.870;9.084;2022-12-07T02:40:54;98057.78;;;2.99;nan
39593;BME280;25286;48.870;9.084;2022-12-07T02:43:25;98057.78;;;2.99;nan
39593;BME280;25286;48.870;9.084;2022-12-07T02:45:52;98052.59;;;3.04;nan
39593;BME280;25286;48.870;9.084;2022-12-07T02:48:20;98054.72;;;3.09;nan
39593;BME280;25286;48.870;9.084;2022-12-07T02:50:50;98058.88;;;3.04;nan
39593;BME280;25286;48.870;9.084;2022-12-07T02:55:55;98042.81;;;3.03;nan
39593;BME280;25286;48.870;9.084;2022-12-07T02:58:41;98045.53;;;3.03;nan
39593;BME280;25286;48.870;9.084;2022-12-07T03:01:19;98042.16;;;3.01;nan
39593;BME280;25286;48.870;9.084;2022-12-07T03:03:53;98045.06;;;2.99;nan
39593;BME280;25286;48.870;9.084;2022-12-07T03:06:31;98042.16;;;3.01;nan
39593;BME280;25286;48.870;9.084;2022-12-07T03:09:15;98047.56;;;3.01;nan
39593;BME280;25286;48.870;9.084;2022-12-07T03:11:47;98040.84;;;2.97;nan
39593;BME280;25286;48.870;9.084;2022-12-07T03:14:17;98035.19;;;2.92;nan
39593;BME280;25286;48.870;9.084;2022-12-07T03:16:48;98038.94;;;2.91;nan
39593;BME280;25286;48.870;9.084;2022-12-07T03:19:18;98023.88;;;2.88;nan
39593;BME280;25286;48.870;9.084;2022-12-07T03:24:19;98027.91;;;2.92;nan
39593;BME280;25286;48.870;9.084;2022-12-07T03:26:55;98030.44;;;2.94;nan
39593;BME280;25286;48.870;9.084;2022-12-07T03:29:34;98032.09;;;2.95;nan
39593;BME280;25286;48.870;9.084;2022-12-07T03:32:04;98017.63;;;2.88;nan
39593;BME280;25286;48.870;9.084;2022-12-07T03:34:44;98013.25;;;2.87;nan
39593;BME280;25286;48.870;9.084;2022-12-07T03:37:17;98020.56;;;2.86;nan
39593;BME280;25286;48.870;9.084;2022-12-07T03:40:30;98014.06;;;2.80;nan
39593;BME280;25286;48.870;9.084;2022-12-07T03:42:31;98021.38;;;2.87;nan
39593;BME280;25286;48.870;9.084;2022-12-07T03:44:59;98021.78;;;2.84;nan
39593;BME280;25286;48.870;9.084;2022-12-07T03:50:54;98015.66;;;2.75;nan
39593;BME280;25286;48.870;9.084;2022-12-07T03:53:22;98010.69;;;2.78;nan
39593;BME280;25286;48.870;9.084;2022-12-07T03:55:47;98014.31;;;2.64;nan
39593;BME280;25286;48.870;9.084;2022-12-07T03:58:15;98018.81;;;2.78;nan
39593;BME280;25286;48.870;9.084;2022-12-07T04:00:43;98010.25;;;2.75;nan
39593;BME280;25286;48.870;9.084;2022-12-07T04:03:10;98013.09;;;2.67;nan
39593;BME280;25286;48.870;9.084;2022-12-07T04:05:36;98012.97;;;2.53;nan
39593;BME280;25286;48.870;9.084;2022-12-07T04:08:03;98015.59;;;2.47;nan
39593;BME280;25286;48.870;9.084;2022-12-07T04:10:29;97999.22;;;2.55;nan
39593;BME280;25286;48.870;9.084;2022-12-07T04:12:55;97980.13;;;2.63;nan
39593;BME280;25286;48.870;9.084;2022-12-07T04:15:22;97967.88;;;2.67;nan
39593;BME280;25286;48.870;9.084;2022-12-07T04:17:48;97976.84;;;2.68;nan
39593;BME280;25286;48.870;9.084;2022-12-07T04:20:14;97975.91;;;2.61;nan
39593;BME280;25286;48.870;9.084;2022-12-07T04:22:40;97974.75;;;2.70;nan
39593;BME280;25286;48.870;9.084;2022-12-07T04:25:06;97969.53;;;2.68;nan
39593;BME280;25286;48.870;9.084;2022-12-07T04:27:33;97971.78;;;2.65;nan
39593;BME280;25286;48.870;9.084;2022-12-07T04:29:59;97972.84;;;2.64;nan
39593;BME280;25286;48.870;9.084;2022-12-07T04:32:25;97969.53;;;2.68;nan
39593;BME280;25286;48.870;9.084;2022-12-07T04:34:51;97963.50;;;2.66;nan
39593;BME280;25286;48.870;9.084;2022-12-07T04:37:18;97982.22;;;2.61;nan
39593;BME280;25286;48.870;9.084;2022-12-07T04:39:44;97977.66;;;2.68;nan
39593;BME280;25286;48.870;9.084;2022-12-07T04:42:13;97985.22;;;2.30;nan
39593;BME280;25286;48.870;9.084;2022-12-07T04:44:39;97992.38;;;2.16;nan
39593;BME280;25286;48.870;9.084;2022-12-07T04:47:05;97994.94;;;2.24;nan
39593;BME280;25286;48.870;9.084;2022-12-07T04:49:37;97997.13;;;2.14;nan
39593;BME280;25286;48.870;9.084;2022-12-07T04:52:03;97996.09;;;2.15;nan
39593;BME280;25286;48.870;9.084;2022-12-07T04:54:29;97998.63;;;2.17;nan
39593;BME280;25286;48.870;9.084;2022-12-07T04:56:55;97998.53;;;2.10;nan
39593;BME280;25286;48.870;9.084;2022-12-07T04:59:22;97998.94;;;2.07;nan
39593;BME280;25286;48.870;9.084;2022-12-07T05:01:48;98001.19;;;2.03;nan
39593;BME280;25286;48.870;9.084;2022-12-07T05:04:14;98003.78;;;1.97;nan
39593;BME280;25286;48.870;9.084;2022-12-07T05:06:42;97999.91;;;1.85;nan
39593;BME280;25286;48.870;9.084;2022-12-07T05:09:08;98007.63;;;1.88;nan
39593;BME280;25286;48.870;9.084;2022-12-07T05:11:34;98014.47;;;1.84;nan
39593;BME280;25286;48.870;9.084;2022-12-07T05:14:14;98016.25;;;1.76;nan
39593;BME280;25286;48.870;9.084;2022-12-07T05:16:40;98019.22;;;1.82;nan
39593;BME280;25286;48.870;9.084;2022-12-07T05:19:08;98024.16;;;1.78;nan
39593;BME280;25286;48.870;9.084;2022-12-07T05:21:35;98028.75;;;1.77;nan
39593;BME280;25286;48.870;9.084;2022-12-07T05:24:01;98011.38;;;1.87;nan
39593;BME280;25286;48.870;9.084;2022-12-07T05:26:27;98009.91;;;1.69;nan
39593;BME280;25286;48.870;9.084;2022-12-07T05:28:54;98012.97;;;1.81;nan
39593;BME280;25286;48.870;9.084;2022-12-07T05:31:21;98004.03;;;1.81;nan
39593;BME280;25286;48.870;9.084;2022-12-07T05:33:47;98006.06;;;1.93;nan
39593;BME280;25286;48.870;9.084;2022-12-07T05:36:14;98009.50;;;2.02;nan
39593;BME280;25286;48.870;9.084;2022-12-07T05:38:40;98008.19;;;1.83;nan
39593;BME280;25286;48.870;9.084;2022-12-07T05:41:17;98018.66;;;1.86;nan
39593;BME280;25286;48.870;9.084;2022-12-07T05:44:03;98010.34;;;1.88;nan
39593;BME280;25286;48.870;9.084;2022-12-07T05:46:29;98005.03;;;1.94;nan
39593;BME280;25286;48.870;9.084;2022-12-07T05:48:55;98012.97;;;1.81;nan
39593;BME280;25286;48.870;9.084;2022-12-07T05:51:22;98005.50;;;1.98;nan
39593;BME280;25286;48.870;9.084;2022-12-07T05:53:48;97999.94;;;2.06;nan
39593;BME280;25286;48.870;9.084;2022-12-07T05:56:14;97994.94;;;2.03;nan
39593;BME280;25286;48.870;9.084;2022-12-07T05:58:41;98006.13;;;2.00;nan
39593;BME280;25286;48.870;9.084;2022-12-07T06:01:25;98001.75;;;1.99;nan
39593;BME280;25286;48.870;9.084;2022-12-07T06:03:52;98015.34;;;2.06;nan
39593;BME280;25286;48.870;9.084;2022-12-07T06:06:18;98015.16;;;2.07;nan
39593;BME280;25286;48.870;9.084;2022-12-07T06:08:44;98014.28;;;2.21;nan
39593;BME280;25286;48.870;9.084;2022-12-07T06:11:11;98020.22;;;2.32;nan
39593;BME280;25286;48.870;9.084;2022-12-07T06:13:56;98014.81;;;2.32;nan
39593;BME280;25286;48.870;9.084;2022-12-07T06:16:22;98025.91;;;2.37;nan
39593;BME280;25286;48.870;9.084;2022-12-07T06:18:48;98014.69;;;2.40;nan
39593;BME280;25286;48.870;9.084;2022-12-07T06:21:14;98012.09;;;2.32;nan
39593;BME280;25286;48.870;9.084;2022-12-07T06:23:40;98010.59;;;2.29;nan
39593;BME280;25286;48.870;9.084;2022-12-07T06:26:07;98011.47;;;2.29;nan
39593;BME280;25286;48.870;9.084;2022-12-07T06:28:33;98012.31;;;2.30;nan
39593;BME280;25286;48.870;9.084;2022-12-07T06:31:00;98006.34;;;2.20;nan
39593;BME280;25286;48.870;9.084;2022-12-07T06:33:26;98006.44;;;2.26;nan
39593;BME280;25286;48.870;9.084;2022-12-07T06:35:53;98006.69;;;2.32;nan
39593;BME280;25286;48.870;9.084;2022-12-07T06:38:19;98014.44;;;2.35;nan
39593;BME280;25286;48.870;9.084;2022-12-07T06:40:45;98012.09;;;2.32;nan
39593;BME280;25286;48.870;9.084;2022-12-07T06:43:14;98014.81;;;2.32;nan
39593;BME280;25286;48.870;9.084;2022-12-07T06:45:41;98015.28;;;2.35;nan
39593;BME280;25286;48.870;9.084;2022-12-07T06:48:07;98013.66;;;2.41;nan
39593;BME280;25286;48.870;9.084;2022-12-07T06:50:36;98005.34;;;2.42;nan
39593;BME280;25286;48.870;9.084;2022-12-07T06:53:02;98015.31;;;2.42;nan
39593;BME280;25286;48.870;9.084;2022-12-07T06:55:29;98014.97;;;2.45;nan
39593;BME280;25286;48.870;9.084;2022-12-07T06:57:55;98007.47;;;2.47;nan
39593;BME280;25286;48.870;9.084;2022-12-07T07:00:21;98013.28;;;2.44;nan
39593;BME280;25286;48.870;9.084;2022-12-07T07:02:48;98018.28;;;2.47;nan
39593;BME280;25286;48.870;9.084;2022-12-07T07:05:14;98011.28;;;2.52;nan
39593;BME280;25286;48.870;9.084;2022-12-07T07:07:41;98019.78;;;2.49;nan
39593;BME280;25286;48.870;9.084;2022-12-07T07:10:07;98017.00;;;2.43;nan
39593;BME280;25286;48.870;9.084;2022-12-07T07:12:33;98012.00;;;2.40;nan
39593;BME280;25286;48.870;9.084;2022-12-07T07:14:59;98023.34;;;2.50;nan
39593;BME280;25286;48.870;9.084;2022-12-07T07:17:26;98015.59;;;2.47;nan
39593;BME280;25286;48.870;9.084;2022-12-07T07:19:52;98025.41;;;2.48;nan
39593;BME280;25286;48.870;9.084;2022-12-07T07:22:18;98026.03;;;2.50;nan
39593;BME280;25286;48.870;9.084;2022-12-07T07:24:44;98026.31;;;2.55;nan
39593;BME280;25286;48.870;9.084;2022-12-07T07:27:11;98030.50;;;2.58;nan
39593;BME280;25286;48.870;9.084;2022-12-07T07:29:37;98028.25;;;2.61;nan
39593;BME280;25286;48.870;9.084;2022-12-07T07:32:03;98032.81;;;2.61;nan
39593;BME280;25286;48.870;9.084;2022-12-07T07:34:29;98030.56;;;2.64;nan
39593;BME280;25286;48.870;9.084;2022-12-07T07:36:56;98025.97;;;2.65;nan
39593;BME280;25286;48.870;9.084;2022-12-07T07:39:22;98033.97;;;2.73;nan
39593;BME280;25286;48.870;9.084;2022-12-07T07:41:48;98023.25;;;2.65;nan
39593;BME280;25286;48.870;9.084;2022-12-07T07:44:23;98037.78;;;2.78;nan
39593;BME280;25286;48.870;9.084;2022-12-07T07:46:50;98037.53;;;2.73;nan
39593;BME280;25286;48.870;9.084;2022-12-07T07:49:16;98045.53;;;2.82;nan
39593;BME280;25286;48.870;9.084;2022-12-07T07:51:42;98038.56;;;2.72;nan
39593;BME280;25286;48.870;9.084;2022-12-07T07:54:08;98046.56;;;2.80;nan
39593;BME280;25286;48.870;9.084;2022-12-07T07:56:35;98039.91;;;2.83;nan
39593;BME280;25286;48.870;9.084;2022-12-07T07:59:01;98045.16;;;2.85;nan
39593;BME280;25286;48.870;9.084;2022-12-07T08:01:30;98051.56;;;2.84;nan
39593;BME280;25286;48.870;9.084;2022-12-07T08:03:56;98047.97;;;2.76;nan
39593;BME280;25286;48.870;9.084;2022-12-07T08:06:23;98052.31;;;2.71;nan
39593;BME280;25286;48.870;9.084;2022-12-07T08:08:49;98046.94;;;2.77;nan
39593;BME280;25286;48.870;9.084;2022-12-07T08:11:15;98047.78;;;2.78;nan
39593;BME280;25286;48.870;9.084;2022-12-07T08:13:41;98049.28;;;2.80;nan
39593;BME280;25286;48.870;9.084;2022-12-07T08:16:09;98047.44;;;2.88;nan
39593;BME280;25286;48.870;9.084;2022-12-07T08:18:36;98057.28;;;2.89;nan
39593;BME280;25286;48.870;9.084;2022-12-07T08:21:02;98054.38;;;2.90;nan
39593;BME280;25286;48.870;9.084;2022-12-07T08:23:29;98049.56;;;2.92;nan
39593;BME280;25286;48.870;9.084;2022-12-07T08:25:59;98052.38;;;2.99;nan
39593;BME280;25286;48.870;9.084;2022-12-07T08:28:25;98052.63;;;2.83;nan
39593;BME280;25286;48.870;9.084;2022-12-07T08:30:52;98057.69;;;2.92;nan
39593;BME280;25286;48.870;9.084;2022-12-07T08:33:18;98056.28;;;2.96;nan
39593;BME280;25286;48.870;9.084;2022-12-07T08:35:45;98063.00;;;3.00;nan
39593;BME280;25286;48.870;9.084;2022-12-07T08:38:11;98065.13;;;3.05;nan
39593;BME280;25286;48.870;9.084;2022-12-07T08:40:38;98069.50;;;3.06;nan
39593;BME280;25286;48.870;9.084;2022-12-07T08:43:04;98067.38;;;3.01;nan
39593;BME280;25286;48.870;9.084;2022-12-07T08:45:30;98066.41;;;3.09;nan
39593;BME280;25286;48.870;9.084;2022-12-07T08:48:06;98055.41;;;2.89;nan
39593;BME280;25286;48.870;9.084;2022-12-07T08:50:33;98058.81;;;2.98;nan
39593;BME280;25286;48.870;9.084;2022-12-07T08:53:00;98060.34;;;3.07;nan
39593;BME280;25286;48.870;9.084;2022-12-07T08:55:27;98055.03;;;3.20;nan
39593;BME280;25286;48.870;9.084;2022-12-07T08:57:53;98064.06;;;3.27;nan
39593;BME280;25286;48.870;9.084;2022-12-07T09:00:20;98051.34;;;3.28;nan
39593;BME280;25286;48.870;9.084;2022-12-07T09:02:47;98070.03;;;3.16;nan
39593;BME280;25286;48.870;9.084;2022-12-07T09:05:13;98059.44;;;3.21;nan
39593;BME280;25286;48.870;9.084;2022-12-07T09:07:41;98054.53;;;3.38;nan
39593;BME280;25286;48.870;9.084;2022-12-07T09:10:09;98060.66;;;3.47;nan
39593;BME280;25286;48.870;9.084;2022-12-07T09:12:35;98064.06;;;3.27;nan
39593;BME280;25286;48.870;9.084;2022-12-07T09:15:01;98057.41;;;3.30;nan
39593;BME280;25286;48.870;9.084;2022-12-07T09:17:31;98055.13;;;3.34;nan
39593;BME280;25286;48.870;9.084;2022-12-07T09:19:58;98056.81;;;3.63;nan
39593;BME280;25286;48.870;9.084;2022-12-07T09:22:24;98049.25;;;3.58;nan
39593;BME280;25286;48.870;9.084;2022-12-07T09:24:50;98049.66;;;3.55;nan
39593;BME280;25286;48.870;9.084;2022-12-07T09:27:16;98057.75;;;3.48;nan
39593;BME280;25286;48.870;9.084;2022-12-07T09:29:44;98050.72;;;3.61;nan
39593;BME280;25286;48.870;9.084;2022-12-07T09:32:13;98054.28;;;3.61;nan
39593;BME280;25286;48.870;9.084;2022-12-07T09:34:39;98051.78;;;3.66;nan
39593;BME280;25286;48.870;9.084;2022-12-07T09:37:06;98058.91;;;3.67;nan
39593;BME280;25286;48.870;9.084;2022-12-07T09:39:32;98061.88;;;3.72;nan
39593;BME280;25286;48.870;9.084;2022-12-07T09:41:59;98054.72;;;3.65;nan
39593;BME280;25286;48.870;9.084;2022-12-07T09:44:26;98060.66;;;3.81;nan
39593;BME280;25286;48.870;9.084;2022-12-07T09:46:53;98055.63;;;3.78;nan
39593;BME280;25286;48.870;9.084;2022-12-07T09:49:20;98055.03;;;3.83;nan
39593;BME280;25286;48.870;9.084;2022-12-07T09:51:46;98056.91;;;3.82;nan
39593;BME280;25286;48.870;9.084;2022-12-07T09:54:14;98048.53;;;3.77;nan
39593;BME280;25286;48.870;9.084;2022-12-07T09:56:44;98043.78;;;3.86;nan
39593;BME280;25286;48.870;9.084;2022-12-07T09:59:16;98040.75;;;4.09;nan
39593;BME280;25286;48.870;9.084;2022-12-07T10:01:44;98044.03;;;3.98;nan
39593;BME280;25286;48.870;9.084;2022-12-07T10:06:38;98042.78;;;3.59;nan
39593;BME280;25286;48.870;9.084;2022-12-07T10:09:11;98037.44;;;3.72;nan
39593;BME280;25286;48.870;9.084;2022-12-07T10:14:22;98034.97;;;3.77;nan
39593;BME280;25286;48.870;9.084;2022-12-07T10:16:49;98028.94;;;3.89;nan
39593;BME280;25286;48.870;9.084;2022-12-07T10:22:04;98025.38;;;3.81;nan
39593;BME280;25286;48.870;9.084;2022-12-07T10:24:31;98024.78;;;3.86;nan
39593;BME280;25286;48.870;9.084;2022-12-07T10:26:57;98023.28;;;3.83;nan
39593;BME280;25286;48.870;9.084;2022-12-07T10:32:00;98018.91;;;3.82;nan
39593;BME280;25286;48.870;9.084;2022-12-07T10:34:29;98021.47;;;3.91;nan
39593;BME280;25286;48.870;9.084;2022-12-07T10:39:43;98023.13;;;3.92;nan
39593;BME280;25286;48.870;9.084;2022-12-07T10:42:23;98011.88;;;3.95;nan
39593;BME280;25286;48.870;9.084;2022-12-07T10:44:50;98015.88;;;3.99;nan
39593;BME280;25286;48.870;9.084;2022-12-07T10:47:34;98012.13;;;4.06;nan
39593;BME280;25286;48.870;9.084;2022-12-07T11:00:08;97998.03;;;3.83;nan
39593;BME280;25286;48.870;9.084;2022-12-07T11:02:44;97995.16;;;3.91;nan
39593;BME280;25286;48.870;9.084;2022-12-07T11:08:00;97991.69;;;3.69;nan
39593;BME280;25286;48.870;9.084;2022-12-07T11:13:18;97985.88;;;3.72;nan
39593;BME280;25286;48.870;9.084;2022-12-07T11:19:11;97988.75;;;3.64;nan
39593;BME280;25286;48.870;9.084;2022-12-07T11:26:59;97978.41;;;3.81;nan
39593;BME280;25286;48.870;9.084;2022-12-07T11:29:42;97977.56;;;3.80;nan
39593;BME280;25286;48.870;9.084;2022-12-07T11:37:25;97973.47;;;3.56;nan
39593;BME280;25286;48.870;9.084;2022-12-07T11:40:01;97963.00;;;3.47;nan
39593;BME280;25286;48.870;9.084;2022-12-07T11:42:42;97962.91;;;3.68;nan
39593;BME280;25286;48.870;9.084;2022-12-07T11:47:58;97957.59;;;3.95;nan
39593;BME280;25286;48.870;9.084;2022-12-07T11:50:36;97960.97;;;4.03;nan
39593;BME280;25286;48.870;9.084;2022-12-07T11:58:12;97954.66;;;3.96;nan
39593;BME280;25286;48.870;9.084;2022-12-07T12:00:40;97950.09;;;4.03;nan
39593;BME280;25286;48.870;9.084;2022-12-07T12:03:15;97954.06;;;4.07;nan
39593;BME280;25286;48.870;9.084;2022-12-07T12:05:46;97943.63;;;4.11;nan
39593;BME280;25286;48.870;9.084;2022-12-07T12:13:10;97941.75;;;4.05;nan
39593;BME280;25286;48.870;9.084;2022-12-07T12:15:51;97940.03;;;3.91;nan
39593;BME280;25286;48.870;9.084;2022-12-07T12:25:46;97941.69;;;3.98;nan
39593;BME280;25286;48.870;9.084;2022-12-07T12:30:45;97931.72;;;3.99;nan
39593;BME280;25286;48.870;9.084;2022-12-07T12:35:37;97934.22;;;4.00;nan
39593;BME280;25286;48.870;9.084;2022-12-07T12:38:21;97932.69;;;3.85;nan
39593;BME280;25286;48.870;9.084;2022-12-07T12:40:50;97928.41;;;4.23;nan
39593;BME280;25286;48.870;9.084;2022-12-07T12:48:47;97930.84;;;3.92;nan
39593;BME280;25286;48.870;9.084;2022-12-07T12:51:59;97937.09;;;3.86;nan
39593;BME280;25286;48.870;9.084;2022-12-07T12:54:10;97926.06;;;4.07;nan
39593;BME280;25286;48.870;9.084;2022-12-07T13:01:54;97919.34;;;3.90;nan
39593;BME280;25286;48.870;9.084;2022-12-07T13:04:23;97920.41;;;3.95;nan
39593;BME280;25286;48.870;9.084;2022-12-07T13:06:50;97915.19;;;4.00;nan
39593;BME280;25286;48.870;9.084;2022-12-07T13:09:20;97911.22;;;4.03;nan
39593;BME280;25286;48.870;9.084;2022-12-07T13:11:54;97909.13;;;3.92;nan
39593;BME280;25286;48.870;9.084;2022-12-07T13:17:10;97905.97;;;3.81;nan
39593;BME280;25286;48.870;9.084;2022-12-07T13:24:55;97899.72;;;3.88;nan
39593;BME280;25286;48.870;9.084;2022-12-07T13:27:22;97885.72;;;3.91;nan
39593;BME280;25286;48.870;9.084;2022-12-07T13:29:48;97894.69;;;3.85;nan
39593;BME280;25286;48.870;9.084;2022-12-07T13:32:24;97891.16;;;3.97;nan
39593;BME280;25286;48.870;9.084;2022-12-07T13:34:51;97887.25;;;4.13;nan
39593;BME280;25286;48.870;9.084;2022-12-07T13:37:24;97893.28;;;4.15;nan
39593;BME280;25286;48.870;9.084;2022-12-07T13:39:53;97885.56;;;4.19;nan
39593;BME280;25286;48.870;9.084;2022-12-07T13:44:52;97889.75;;;4.15;nan
39593;BME280;25286;48.870;9.084;2022-12-07T13:47:32;97882.84;;;4.12;nan
39593;BME280;25286;48.870;9.084;2022-12-07T13:50:01;97881.19;;;4.24;nan
39593;BME280;25286;48.870;9.084;2022-12-07T13:52:30;97889.97;;;4.13;nan
39593;BME280;25286;48.870;9.084;2022-12-07T13:57:33;97883.66;;;4.06;nan
39593;BME280;25286;48.870;9.084;2022-12-07T14:00:01;97886.19;;;4.14;nan
39593;BME280;25286;48.870;9.084;2022-12-07T14:02:32;97883.66;;;3.99;nan
39593;BME280;25286;48.870;9.084;2022-12-07T14:07:34;97887.19;;;3.87;nan
39593;BME280;25286;48.870;9.084;2022-12-07T14:10:05;97885.72;;;3.91;nan
39593;BME280;25286;48.870;9.084;2022-12-07T14:12:32;97887.84;;;4.02;nan
39593;BME280;25286;48.870;9.084;2022-12-07T14:14:59;97883.03;;;3.97;nan
39593;BME280;25286;48.870;9.084;2022-12-07T14:17:27;97887.19;;;3.87;nan
39593;BME280;25286;48.870;9.084;2022-12-07T14:19:57;97880.75;;;3.94;nan
39593;BME280;25286;48.870;9.084;2022-12-07T14:22:25;97880.31;;;3.91;nan
39593;BME280;25286;48.870;9.084;2022-12-07T14:24:58;97879.25;;;3.85;nan
39593;BME280;25286;48.870;9.084;2022-12-07T14:27:24;97883.00;;;3.84;nan
39593;BME280;25286;48.870;9.084;2022-12-07T14:29:56;97881.09;;;3.85;nan
39593;BME280;25286;48.870;9.084;2022-12-07T14:32:24;97869.63;;;3.76;nan
39593;BME280;25286;48.870;9.084;2022-12-07T14:37:23;97874.97;;;3.56;nan
39593;BME280;25286;48.870;9.084;2022-12-07T14:39:49;97879.34;;;3.57;nan
39593;BME280;25286;48.870;9.084;2022-12-07T14:42:16;97883.34;;;3.61;nan
39593;BME280;25286;48.870;9.084;2022-12-07T14:44:42;97872.25;;;3.56;nan
39593;BME280;25286;48.870;9.084;2022-12-07T14:47:12;97878.06;;;3.46;nan
39593;BME280;25286;48.870;9.084;2022-12-07T14:49:38;97877.03;;;3.47;nan
39593;BME280;25286;48.870;9.084;2022-12-07T14:52:05;97874.09;;;3.42;nan
39593;BME280;25286;48.870;9.084;2022-12-07T14:54:32;97881.75;;;3.32;nan
39593;BME280;25286;48.870;9.084;2022-12-07T14:56:58;97886.50;;;3.23;nan
39593;BME280;25286;48.870;9.084;2022-12-07T14:59:25;97887.22;;;3.39;nan
39593;BME280;25286;48.870;9.084;2022-12-07T15:01:51;97893.50;;;3.39;nan
39593;BME280;25286;48.870;9.084;2022-12-07T15:04:17;97891.41;;;3.41;nan
39593;BME280;25286;48.870;9.084;2022-12-07T15:06:54;97886.59;;;3.37;nan
39593;BME280;25286;48.870;9.084;2022-12-07T15:09:20;97888.84;;;3.33;nan
39593;BME280;25286;48.870;9.084;2022-12-07T15:11:47;97893.84;;;3.29;nan
39593;BME280;25286;48.870;9.084;2022-12-07T15:14:13;97891.00;;;3.03;nan
39593;BME280;25286;48.870;9.084;2022-12-07T15:16:40;97890.72;;;3.33;nan
39593;BME280;25286;48.870;9.084;2022-12-07T15:19:40;97895.53;;;3.30;nan
39593;BME280;25286;48.870;9.084;2022-12-07T15:21:59;97895.09;;;3.27;nan
39593;BME280;25286;48.870;9.084;2022-12-07T15:24:26;97892.16;;;3.28;nan
39593;BME280;25286;48.870;9.084;2022-12-07T15:26:52;97892.94;;;3.16;nan
39593;BME280;25286;48.870;9.084;2022-12-07T15:29:18;97897.06;;;3.05;nan
39593;BME280;25286;48.870;9.084;2022-12-07T15:31:45;97891.09;;;3.16;nan
39593;BME280;25286;48.870;9.084;2022-12-07T15:34:11;97885.91;;;3.21;nan
39593;BME280;25286;48.870;9.084;2022-12-07T15:36:37;97885.09;;;3.27;nan